sensor_id;sensor_type;location;lat;lon;timestamp;P1;durP1;ratioP1;P2;durP2;ratioP2
76550;SDS011;68768;53.156;18.164;2023-11-19T00:00:07;22.90;;;11.00;;
76550;SDS011;68768;53.156;18.164;2023-11-19T00:03:00;23.40;;;10.30;;
76550;SDS011;68768;53.156;18.164;2023-11-19T00:05:28;22.60;;;10.10;;
76550;SDS011;68768;53.156;18.164;2023-11-19T00:07:55;23.00;;;10.60;;
76550;SDS011;68768;53.156;18.164;2023-11-19T00:10:22;22.70;;;9.80;;
76550;SDS011;68768;53.156;18.164;2023-11-19T00:12:49;20.90;;;10.00;;
76550;SDS011;68768;53.156;18.164;2023-11-19T00:15:17;24.50;;;10.90;;
76550;SDS011;68768;53.156;18.164;2023-11-19T00:17:45;23.00;;;10.70;;
76550;SDS011;68768;53.156;18.164;2023-11-19T00:20:14;24.40;;;10.70;;
76550;SDS011;68768;53.156;18.164;2023-11-19T00:22:43;24.40;;;10.50;;
76550;SDS011;68768;53.156;18.164;2023-11-19T00:25:10;20.30;;;9.90;;
76550;SDS011;68768;53.156;18.164;2023-11-19T00:27:37;21.30;;;10.30;;
76550;SDS011;68768;53.156;18.164;2023-11-19T00:30:05;20.80;;;10.30;;
76550;SDS011;68768;53.156;18.164;2023-11-19T00:32:33;25.10;;;10.60;;
76550;SDS011;68768;53.156;18.164;2023-11-19T00:35:00;22.40;;;10.90;;
76550;SDS011;68768;53.156;18.164;2023-11-19T00:37:28;22.80;;;10.80;;
76550;SDS011;68768;53.156;18.164;2023-11-19T00:39:55;24.10;;;10.90;;
76550;SDS011;68768;53.156;18.164;2023-11-19T00:42:23;21.80;;;9.90;;
76550;SDS011;68768;53.156;18.164;2023-11-19T00:44:51;25.50;;;10.90;;
76550;SDS011;68768;53.156;18.164;2023-11-19T00:47:18;24.80;;;11.40;;
76550;SDS011;68768;53.156;18.164;2023-11-19T00:49:49;26.10;;;10.70;;
76550;SDS011;68768;53.156;18.164;2023-11-19T00:52:17;25.50;;;10.70;;
76550;SDS011;68768;53.156;18.164;2023-11-19T00:54:45;23.20;;;10.60;;
76550;SDS011;68768;53.156;18.164;2023-11-19T00:57:12;25.00;;;10.70;;
76550;SDS011;68768;53.156;18.164;2023-11-19T00:59:41;23.60;;;10.70;;
76550;SDS011;68768;53.156;18.164;2023-11-19T01:02:11;24.30;;;11.10;;
76550;SDS011;68768;53.156;18.164;2023-11-19T01:04:40;25.90;;;12.30;;
76550;SDS011;68768;53.156;18.164;2023-11-19T01:07:08;22.80;;;10.70;;
76550;SDS011;68768;53.156;18.164;2023-11-19T01:09:41;30.30;;;11.50;;
76550;SDS011;68768;53.156;18.164;2023-11-19T01:12:11;24.20;;;10.90;;
76550;SDS011;68768;53.156;18.164;2023-11-19T01:14:38;26.20;;;11.80;;
76550;SDS011;68768;53.156;18.164;2023-11-19T01:17:05;22.10;;;10.40;;
76550;SDS011;68768;53.156;18.164;2023-11-19T01:19:32;25.00;;;11.40;;
76550;SDS011;68768;53.156;18.164;2023-11-19T01:21:59;26.70;;;12.60;;
76550;SDS011;68768;53.156;18.164;2023-11-19T01:24:26;29.60;;;13.30;;
76550;SDS011;68768;53.156;18.164;2023-11-19T01:26:55;28.10;;;12.30;;
76550;SDS011;68768;53.156;18.164;2023-11-19T01:29:24;34.00;;;14.60;;
76550;SDS011;68768;53.156;18.164;2023-11-19T01:31:51;29.70;;;12.80;;
76550;SDS011;68768;53.156;18.164;2023-11-19T01:34:18;30.40;;;11.80;;
76550;SDS011;68768;53.156;18.164;2023-11-19T01:36:46;30.40;;;12.40;;
76550;SDS011;68768;53.156;18.164;2023-11-19T01:39:15;26.20;;;12.80;;
76550;SDS011;68768;53.156;18.164;2023-11-19T01:41:46;31.20;;;13.70;;
76550;SDS011;68768;53.156;18.164;2023-11-19T01:44:13;29.30;;;13.80;;
76550;SDS011;68768;53.156;18.164;2023-11-19T01:46:40;32.50;;;14.10;;
76550;SDS011;68768;53.156;18.164;2023-11-19T01:49:10;30.90;;;13.80;;
76550;SDS011;68768;53.156;18.164;2023-11-19T01:51:38;30.50;;;12.60;;
76550;SDS011;68768;53.156;18.164;2023-11-19T01:54:06;37.20;;;15.00;;
76550;SDS011;68768;53.156;18.164;2023-11-19T01:56:34;35.90;;;15.40;;
76550;SDS011;68768;53.156;18.164;2023-11-19T01:59:02;38.40;;;16.30;;
76550;SDS011;68768;53.156;18.164;2023-11-19T02:01:30;36.10;;;13.70;;
76550;SDS011;68768;53.156;18.164;2023-11-19T02:03:59;33.20;;;14.80;;
76550;SDS011;68768;53.156;18.164;2023-11-19T02:06:26;34.10;;;14.20;;
76550;SDS011;68768;53.156;18.164;2023-11-19T02:08:54;33.10;;;13.60;;
76550;SDS011;68768;53.156;18.164;2023-11-19T02:11:21;36.20;;;15.20;;
76550;SDS011;68768;53.156;18.164;2023-11-19T02:13:48;29.90;;;13.50;;
76550;SDS011;68768;53.156;18.164;2023-11-19T02:16:15;37.60;;;16.10;;
76550;SDS011;68768;53.156;18.164;2023-11-19T02:18:42;37.50;;;15.00;;
76550;SDS011;68768;53.156;18.164;2023-11-19T02:21:09;32.30;;;14.50;;
76550;SDS011;68768;53.156;18.164;2023-11-19T02:23:37;34.80;;;14.50;;
76550;SDS011;68768;53.156;18.164;2023-11-19T02:28:49;32.60;;;14.90;;
76550;SDS011;68768;53.156;18.164;2023-11-19T02:31:16;31.40;;;14.10;;
76550;SDS011;68768;53.156;18.164;2023-11-19T02:33:43;28.60;;;13.20;;
76550;SDS011;68768;53.156;18.164;2023-11-19T02:36:10;30.00;;;13.70;;
76550;SDS011;68768;53.156;18.164;2023-11-19T02:38:37;29.00;;;11.80;;
76550;SDS011;68768;53.156;18.164;2023-11-19T02:41:04;39.40;;;16.40;;
76550;SDS011;68768;53.156;18.164;2023-11-19T02:43:33;38.50;;;16.30;;
76550;SDS011;68768;53.156;18.164;2023-11-19T02:46:01;41.30;;;16.70;;
76550;SDS011;68768;53.156;18.164;2023-11-19T02:48:29;35.80;;;14.90;;
76550;SDS011;68768;53.156;18.164;2023-11-19T02:50:57;34.00;;;13.90;;
76550;SDS011;68768;53.156;18.164;2023-11-19T02:53:24;37.60;;;15.50;;
76550;SDS011;68768;53.156;18.164;2023-11-19T02:55:54;34.50;;;16.20;;
76550;SDS011;68768;53.156;18.164;2023-11-19T02:58:27;31.50;;;12.80;;
76550;SDS011;68768;53.156;18.164;2023-11-19T03:00:55;30.80;;;13.40;;
76550;SDS011;68768;53.156;18.164;2023-11-19T03:03:26;37.10;;;14.70;;
76550;SDS011;68768;53.156;18.164;2023-11-19T03:06:04;34.30;;;14.70;;
76550;SDS011;68768;53.156;18.164;2023-11-19T03:08:32;29.30;;;12.80;;
76550;SDS011;68768;53.156;18.164;2023-11-19T03:11:00;39.50;;;14.70;;
76550;SDS011;68768;53.156;18.164;2023-11-19T03:13:26;29.90;;;12.20;;
76550;SDS011;68768;53.156;18.164;2023-11-19T03:15:53;37.40;;;15.70;;
76550;SDS011;68768;53.156;18.164;2023-11-19T03:18:20;33.90;;;14.90;;
76550;SDS011;68768;53.156;18.164;2023-11-19T03:20:47;34.70;;;15.40;;
76550;SDS011;68768;53.156;18.164;2023-11-19T03:23:14;36.60;;;15.60;;
76550;SDS011;68768;53.156;18.164;2023-11-19T03:25:41;36.30;;;14.70;;
76550;SDS011;68768;53.156;18.164;2023-11-19T03:28:08;36.20;;;15.40;;
76550;SDS011;68768;53.156;18.164;2023-11-19T03:30:35;35.20;;;14.40;;
76550;SDS011;68768;53.156;18.164;2023-11-19T03:33:02;40.30;;;15.40;;
76550;SDS011;68768;53.156;18.164;2023-11-19T03:35:29;36.60;;;14.80;;
76550;SDS011;68768;53.156;18.164;2023-11-19T03:37:57;37.10;;;14.90;;
76550;SDS011;68768;53.156;18.164;2023-11-19T03:40:24;40.20;;;15.50;;
76550;SDS011;68768;53.156;18.164;2023-11-19T03:42:51;36.40;;;15.20;;
76550;SDS011;68768;53.156;18.164;2023-11-19T03:45:18;40.50;;;16.90;;
76550;SDS011;68768;53.156;18.164;2023-11-19T03:47:45;39.50;;;14.70;;
76550;SDS011;68768;53.156;18.164;2023-11-19T03:50:12;37.00;;;15.80;;
76550;SDS011;68768;53.156;18.164;2023-11-19T03:52:39;33.20;;;13.50;;
76550;SDS011;68768;53.156;18.164;2023-11-19T03:55:06;38.70;;;16.10;;
76550;SDS011;68768;53.156;18.164;2023-11-19T03:57:35;39.40;;;16.10;;
76550;SDS011;68768;53.156;18.164;2023-11-19T04:00:02;39.00;;;15.70;;
76550;SDS011;68768;53.156;18.164;2023-11-19T04:02:40;38.20;;;15.60;;
76550;SDS011;68768;53.156;18.164;2023-11-19T04:05:08;37.60;;;16.50;;
76550;SDS011;68768;53.156;18.164;2023-11-19T04:07:36;33.80;;;14.50;;
76550;SDS011;68768;53.156;18.164;2023-11-19T04:10:03;42.10;;;16.70;;
76550;SDS011;68768;53.156;18.164;2023-11-19T04:12:31;37.80;;;16.00;;
76550;SDS011;68768;53.156;18.164;2023-11-19T04:14:58;31.60;;;13.60;;
76550;SDS011;68768;53.156;18.164;2023-11-19T04:17:25;40.10;;;17.20;;
76550;SDS011;68768;53.156;18.164;2023-11-19T04:19:51;39.70;;;17.40;;
76550;SDS011;68768;53.156;18.164;2023-11-19T04:22:18;32.50;;;12.90;;
76550;SDS011;68768;53.156;18.164;2023-11-19T04:24:45;36.60;;;15.90;;
76550;SDS011;68768;53.156;18.164;2023-11-19T04:27:13;40.30;;;15.80;;
76550;SDS011;68768;53.156;18.164;2023-11-19T04:29:40;34.30;;;15.10;;
76550;SDS011;68768;53.156;18.164;2023-11-19T04:32:07;37.70;;;15.80;;
76550;SDS011;68768;53.156;18.164;2023-11-19T04:34:34;41.10;;;16.20;;
76550;SDS011;68768;53.156;18.164;2023-11-19T04:37:01;39.80;;;17.10;;
76550;SDS011;68768;53.156;18.164;2023-11-19T04:39:28;37.90;;;16.30;;
76550;SDS011;68768;53.156;18.164;2023-11-19T04:41:55;35.30;;;15.40;;
76550;SDS011;68768;53.156;18.164;2023-11-19T04:44:22;38.80;;;16.10;;
76550;SDS011;68768;53.156;18.164;2023-11-19T04:46:49;33.20;;;14.20;;
76550;SDS011;68768;53.156;18.164;2023-11-19T04:49:16;36.50;;;16.10;;
76550;SDS011;68768;53.156;18.164;2023-11-19T04:51:45;38.60;;;14.80;;
76550;SDS011;68768;53.156;18.164;2023-11-19T04:54:13;34.60;;;14.90;;
76550;SDS011;68768;53.156;18.164;2023-11-19T04:56:40;40.20;;;16.50;;
76550;SDS011;68768;53.156;18.164;2023-11-19T04:59:12;36.10;;;16.80;;
76550;SDS011;68768;53.156;18.164;2023-11-19T05:01:38;39.40;;;15.40;;
76550;SDS011;68768;53.156;18.164;2023-11-19T05:04:06;34.70;;;15.50;;
76550;SDS011;68768;53.156;18.164;2023-11-19T05:06:34;30.60;;;13.60;;
76550;SDS011;68768;53.156;18.164;2023-11-19T05:09:01;34.00;;;14.40;;
76550;SDS011;68768;53.156;18.164;2023-11-19T05:11:31;34.50;;;14.90;;
76550;SDS011;68768;53.156;18.164;2023-11-19T05:13:58;36.70;;;15.30;;
76550;SDS011;68768;53.156;18.164;2023-11-19T05:16:25;33.10;;;13.90;;
76550;SDS011;68768;53.156;18.164;2023-11-19T05:18:52;36.20;;;15.60;;
76550;SDS011;68768;53.156;18.164;2023-11-19T05:21:18;30.90;;;13.00;;
76550;SDS011;68768;53.156;18.164;2023-11-19T05:23:45;35.80;;;14.60;;
76550;SDS011;68768;53.156;18.164;2023-11-19T05:26:19;38.30;;;15.40;;
76550;SDS011;68768;53.156;18.164;2023-11-19T05:28:48;31.90;;;13.10;;
76550;SDS011;68768;53.156;18.164;2023-11-19T05:31:15;30.60;;;13.40;;
76550;SDS011;68768;53.156;18.164;2023-11-19T05:33:43;30.80;;;13.80;;
76550;SDS011;68768;53.156;18.164;2023-11-19T05:36:11;43.10;;;16.80;;
76550;SDS011;68768;53.156;18.164;2023-11-19T05:38:39;28.60;;;13.40;;
76550;SDS011;68768;53.156;18.164;2023-11-19T05:41:06;28.00;;;12.90;;
76550;SDS011;68768;53.156;18.164;2023-11-19T05:43:33;31.80;;;13.10;;
76550;SDS011;68768;53.156;18.164;2023-11-19T05:46:00;25.60;;;12.10;;
76550;SDS011;68768;53.156;18.164;2023-11-19T05:48:28;27.30;;;11.80;;
76550;SDS011;68768;53.156;18.164;2023-11-19T05:50:55;28.50;;;13.00;;
76550;SDS011;68768;53.156;18.164;2023-11-19T05:53:22;26.50;;;11.50;;
76550;SDS011;68768;53.156;18.164;2023-11-19T05:55:49;30.60;;;12.60;;
76550;SDS011;68768;53.156;18.164;2023-11-19T05:58:24;25.50;;;10.20;;
76550;SDS011;68768;53.156;18.164;2023-11-19T06:00:52;24.30;;;11.80;;
76550;SDS011;68768;53.156;18.164;2023-11-19T06:03:19;23.40;;;11.00;;
76550;SDS011;68768;53.156;18.164;2023-11-19T06:05:50;24.10;;;11.10;;
76550;SDS011;68768;53.156;18.164;2023-11-19T06:08:19;25.80;;;11.60;;
76550;SDS011;68768;53.156;18.164;2023-11-19T06:10:47;25.00;;;11.90;;
76550;SDS011;68768;53.156;18.164;2023-11-19T06:13:16;27.30;;;11.10;;
76550;SDS011;68768;53.156;18.164;2023-11-19T06:15:43;24.70;;;11.30;;
76550;SDS011;68768;53.156;18.164;2023-11-19T06:18:10;21.00;;;9.50;;
76550;SDS011;68768;53.156;18.164;2023-11-19T06:20:41;24.30;;;10.30;;
76550;SDS011;68768;53.156;18.164;2023-11-19T06:23:08;25.90;;;10.30;;
76550;SDS011;68768;53.156;18.164;2023-11-19T06:25:35;23.10;;;10.60;;
76550;SDS011;68768;53.156;18.164;2023-11-19T06:28:02;25.90;;;11.50;;
76550;SDS011;68768;53.156;18.164;2023-11-19T06:30:29;22.10;;;10.60;;
76550;SDS011;68768;53.156;18.164;2023-11-19T06:32:59;21.00;;;10.00;;
76550;SDS011;68768;53.156;18.164;2023-11-19T06:35:26;23.40;;;11.10;;
76550;SDS011;68768;53.156;18.164;2023-11-19T06:37:54;22.50;;;9.60;;
76550;SDS011;68768;53.156;18.164;2023-11-19T06:40:21;20.00;;;9.50;;
76550;SDS011;68768;53.156;18.164;2023-11-19T06:42:48;28.00;;;12.20;;
76550;SDS011;68768;53.156;18.164;2023-11-19T06:45:15;24.70;;;11.30;;
76550;SDS011;68768;53.156;18.164;2023-11-19T06:47:42;22.60;;;9.90;;
76550;SDS011;68768;53.156;18.164;2023-11-19T06:50:09;22.70;;;10.20;;
76550;SDS011;68768;53.156;18.164;2023-11-19T06:52:36;26.50;;;11.40;;
76550;SDS011;68768;53.156;18.164;2023-11-19T06:55:04;21.20;;;9.60;;
76550;SDS011;68768;53.156;18.164;2023-11-19T06:57:31;24.50;;;10.00;;
76550;SDS011;68768;53.156;18.164;2023-11-19T06:59:58;22.00;;;9.50;;
76550;SDS011;68768;53.156;18.164;2023-11-19T07:02:25;21.00;;;10.30;;
76550;SDS011;68768;53.156;18.164;2023-11-19T07:04:52;19.80;;;9.70;;
76550;SDS011;68768;53.156;18.164;2023-11-19T07:07:19;21.40;;;10.10;;
76550;SDS011;68768;53.156;18.164;2023-11-19T07:09:46;20.40;;;9.20;;
76550;SDS011;68768;53.156;18.164;2023-11-19T07:12:14;24.90;;;10.70;;
76550;SDS011;68768;53.156;18.164;2023-11-19T07:14:42;22.20;;;9.80;;
76550;SDS011;68768;53.156;18.164;2023-11-19T07:17:08;19.40;;;9.20;;
76550;SDS011;68768;53.156;18.164;2023-11-19T07:19:36;21.00;;;10.10;;
76550;SDS011;68768;53.156;18.164;2023-11-19T07:22:04;17.80;;;8.30;;
76550;SDS011;68768;53.156;18.164;2023-11-19T07:24:32;20.30;;;9.30;;
76550;SDS011;68768;53.156;18.164;2023-11-19T07:26:59;22.70;;;10.30;;
76550;SDS011;68768;53.156;18.164;2023-11-19T07:29:27;22.10;;;10.30;;
76550;SDS011;68768;53.156;18.164;2023-11-19T07:31:54;20.80;;;9.80;;
76550;SDS011;68768;53.156;18.164;2023-11-19T07:34:21;21.80;;;10.00;;
76550;SDS011;68768;53.156;18.164;2023-11-19T07:36:48;21.50;;;9.60;;
76550;SDS011;68768;53.156;18.164;2023-11-19T07:39:14;25.80;;;10.00;;
76550;SDS011;68768;53.156;18.164;2023-11-19T07:41:42;23.90;;;10.10;;
76550;SDS011;68768;53.156;18.164;2023-11-19T07:44:10;22.00;;;10.90;;
76550;SDS011;68768;53.156;18.164;2023-11-19T07:46:37;22.00;;;10.30;;
76550;SDS011;68768;53.156;18.164;2023-11-19T07:49:04;20.10;;;9.80;;
76550;SDS011;68768;53.156;18.164;2023-11-19T07:51:32;19.60;;;9.90;;
76550;SDS011;68768;53.156;18.164;2023-11-19T07:53:59;22.00;;;10.30;;
76550;SDS011;68768;53.156;18.164;2023-11-19T07:56:26;23.40;;;10.40;;
76550;SDS011;68768;53.156;18.164;2023-11-19T07:58:53;23.80;;;9.70;;
76550;SDS011;68768;53.156;18.164;2023-11-19T08:01:20;21.80;;;9.70;;
76550;SDS011;68768;53.156;18.164;2023-11-19T08:03:47;23.70;;;11.00;;
76550;SDS011;68768;53.156;18.164;2023-11-19T08:06:14;27.80;;;12.60;;
76550;SDS011;68768;53.156;18.164;2023-11-19T08:08:41;22.00;;;9.70;;
76550;SDS011;68768;53.156;18.164;2023-11-19T08:11:09;22.10;;;9.80;;
76550;SDS011;68768;53.156;18.164;2023-11-19T08:13:37;21.80;;;10.20;;
76550;SDS011;68768;53.156;18.164;2023-11-19T08:16:04;22.20;;;10.80;;
76550;SDS011;68768;53.156;18.164;2023-11-19T08:18:32;24.20;;;11.00;;
76550;SDS011;68768;53.156;18.164;2023-11-19T08:20:59;22.70;;;11.90;;
76550;SDS011;68768;53.156;18.164;2023-11-19T08:23:27;23.30;;;11.20;;
76550;SDS011;68768;53.156;18.164;2023-11-19T08:25:55;21.70;;;10.60;;
76550;SDS011;68768;53.156;18.164;2023-11-19T08:28:22;20.00;;;8.80;;
76550;SDS011;68768;53.156;18.164;2023-11-19T08:30:49;26.50;;;10.40;;
76550;SDS011;68768;53.156;18.164;2023-11-19T08:33:17;30.50;;;12.40;;
76550;SDS011;68768;53.156;18.164;2023-11-19T08:35:44;26.20;;;11.50;;
76550;SDS011;68768;53.156;18.164;2023-11-19T08:38:11;23.30;;;11.20;;
76550;SDS011;68768;53.156;18.164;2023-11-19T08:40:38;21.90;;;10.50;;
76550;SDS011;68768;53.156;18.164;2023-11-19T08:43:06;28.00;;;12.00;;
76550;SDS011;68768;53.156;18.164;2023-11-19T08:45:33;29.30;;;12.80;;
76550;SDS011;68768;53.156;18.164;2023-11-19T08:48:00;22.10;;;10.60;;
76550;SDS011;68768;53.156;18.164;2023-11-19T08:50:27;25.80;;;11.90;;
76550;SDS011;68768;53.156;18.164;2023-11-19T08:52:55;24.20;;;10.50;;
76550;SDS011;68768;53.156;18.164;2023-11-19T08:55:23;28.20;;;12.70;;
76550;SDS011;68768;53.156;18.164;2023-11-19T08:57:50;26.90;;;12.00;;
76550;SDS011;68768;53.156;18.164;2023-11-19T09:00:17;26.00;;;12.40;;
76550;SDS011;68768;53.156;18.164;2023-11-19T09:02:44;27.90;;;13.20;;
76550;SDS011;68768;53.156;18.164;2023-11-19T09:05:11;24.90;;;10.90;;
76550;SDS011;68768;53.156;18.164;2023-11-19T09:07:41;23.80;;;11.40;;
76550;SDS011;68768;53.156;18.164;2023-11-19T09:10:08;29.10;;;12.60;;
76550;SDS011;68768;53.156;18.164;2023-11-19T09:12:35;23.90;;;10.30;;
76550;SDS011;68768;53.156;18.164;2023-11-19T09:15:02;26.30;;;11.50;;
76550;SDS011;68768;53.156;18.164;2023-11-19T09:17:30;23.50;;;12.10;;
76550;SDS011;68768;53.156;18.164;2023-11-19T09:19:57;26.90;;;12.20;;
76550;SDS011;68768;53.156;18.164;2023-11-19T09:22:24;25.10;;;10.50;;
76550;SDS011;68768;53.156;18.164;2023-11-19T09:24:51;29.70;;;11.70;;
76550;SDS011;68768;53.156;18.164;2023-11-19T09:27:18;33.80;;;14.10;;
76550;SDS011;68768;53.156;18.164;2023-11-19T09:29:45;27.00;;;12.00;;
76550;SDS011;68768;53.156;18.164;2023-11-19T09:32:15;26.70;;;12.20;;
76550;SDS011;68768;53.156;18.164;2023-11-19T09:34:42;24.60;;;11.30;;
76550;SDS011;68768;53.156;18.164;2023-11-19T09:37:09;29.70;;;13.30;;
76550;SDS011;68768;53.156;18.164;2023-11-19T09:39:36;26.00;;;12.50;;
76550;SDS011;68768;53.156;18.164;2023-11-19T09:42:03;29.20;;;12.80;;
76550;SDS011;68768;53.156;18.164;2023-11-19T09:44:30;31.60;;;14.20;;
76550;SDS011;68768;53.156;18.164;2023-11-19T09:46:58;25.20;;;12.00;;
76550;SDS011;68768;53.156;18.164;2023-11-19T09:49:26;26.60;;;12.20;;
76550;SDS011;68768;53.156;18.164;2023-11-19T09:51:54;29.60;;;13.10;;
76550;SDS011;68768;53.156;18.164;2023-11-19T09:54:21;30.40;;;13.10;;
76550;SDS011;68768;53.156;18.164;2023-11-19T09:56:48;26.30;;;11.50;;
76550;SDS011;68768;53.156;18.164;2023-11-19T09:59:16;28.80;;;13.60;;
76550;SDS011;68768;53.156;18.164;2023-11-19T10:01:44;31.40;;;12.90;;
76550;SDS011;68768;53.156;18.164;2023-11-19T10:04:12;26.40;;;11.80;;
76550;SDS011;68768;53.156;18.164;2023-11-19T10:06:43;32.30;;;13.90;;
76550;SDS011;68768;53.156;18.164;2023-11-19T10:09:11;31.20;;;14.00;;
76550;SDS011;68768;53.156;18.164;2023-11-19T10:11:39;32.70;;;14.60;;
76550;SDS011;68768;53.156;18.164;2023-11-19T10:14:06;32.60;;;14.50;;
76550;SDS011;68768;53.156;18.164;2023-11-19T10:16:34;34.40;;;13.50;;
76550;SDS011;68768;53.156;18.164;2023-11-19T10:19:01;24.80;;;11.90;;
76550;SDS011;68768;53.156;18.164;2023-11-19T10:21:28;31.70;;;13.40;;
76550;SDS011;68768;53.156;18.164;2023-11-19T10:23:58;28.30;;;13.50;;
76550;SDS011;68768;53.156;18.164;2023-11-19T10:26:27;30.40;;;13.80;;
76550;SDS011;68768;53.156;18.164;2023-11-19T10:28:55;30.50;;;13.50;;
76550;SDS011;68768;53.156;18.164;2023-11-19T10:31:22;30.90;;;13.20;;
76550;SDS011;68768;53.156;18.164;2023-11-19T10:33:52;30.70;;;14.00;;
76550;SDS011;68768;53.156;18.164;2023-11-19T10:36:20;29.40;;;12.10;;
76550;SDS011;68768;53.156;18.164;2023-11-19T10:38:54;31.80;;;13.60;;
76550;SDS011;68768;53.156;18.164;2023-11-19T10:41:29;28.30;;;13.30;;
76550;SDS011;68768;53.156;18.164;2023-11-19T10:43:57;34.10;;;14.70;;
76550;SDS011;68768;53.156;18.164;2023-11-19T10:46:37;36.20;;;14.40;;
76550;SDS011;68768;53.156;18.164;2023-11-19T10:49:08;34.00;;;13.50;;
76550;SDS011;68768;53.156;18.164;2023-11-19T10:51:36;28.90;;;12.80;;
76550;SDS011;68768;53.156;18.164;2023-11-19T10:54:10;39.30;;;15.90;;
76550;SDS011;68768;53.156;18.164;2023-11-19T10:56:41;33.90;;;14.30;;
76550;SDS011;68768;53.156;18.164;2023-11-19T10:59:11;32.60;;;14.30;;
76550;SDS011;68768;53.156;18.164;2023-11-19T11:01:43;43.50;;;17.70;;
76550;SDS011;68768;53.156;18.164;2023-11-19T11:04:14;38.30;;;15.60;;
76550;SDS011;68768;53.156;18.164;2023-11-19T11:06:49;32.80;;;14.20;;
76550;SDS011;68768;53.156;18.164;2023-11-19T11:09:17;34.50;;;13.70;;
76550;SDS011;68768;53.156;18.164;2023-11-19T11:11:47;30.10;;;13.60;;
76550;SDS011;68768;53.156;18.164;2023-11-19T11:16:45;34.90;;;14.90;;
76550;SDS011;68768;53.156;18.164;2023-11-19T11:19:13;43.30;;;18.10;;
76550;SDS011;68768;53.156;18.164;2023-11-19T11:21:42;39.10;;;14.70;;
76550;SDS011;68768;53.156;18.164;2023-11-19T11:24:21;33.80;;;14.30;;
76550;SDS011;68768;53.156;18.164;2023-11-19T11:38:16;31.90;;;13.40;;
76550;SDS011;68768;53.156;18.164;2023-11-19T11:43:51;32.10;;;13.50;;
76550;SDS011;68768;53.156;18.164;2023-11-19T11:49:04;35.00;;;14.00;;
76550;SDS011;68768;53.156;18.164;2023-11-19T11:59:51;43.20;;;17.10;;
76550;SDS011;68768;53.156;18.164;2023-11-19T12:02:19;40.60;;;15.70;;
76550;SDS011;68768;53.156;18.164;2023-11-19T12:04:49;40.70;;;16.40;;
76550;SDS011;68768;53.156;18.164;2023-11-19T12:07:21;37.90;;;15.40;;
76550;SDS011;68768;53.156;18.164;2023-11-19T12:09:55;39.60;;;15.10;;
76550;SDS011;68768;53.156;18.164;2023-11-19T12:12:34;36.60;;;15.90;;
76550;SDS011;68768;53.156;18.164;2023-11-19T12:15:02;41.00;;;15.50;;
76550;SDS011;68768;53.156;18.164;2023-11-19T12:20:01;41.40;;;16.20;;
76550;SDS011;68768;53.156;18.164;2023-11-19T12:22:28;41.70;;;15.00;;
76550;SDS011;68768;53.156;18.164;2023-11-19T12:24:55;40.70;;;15.80;;
76550;SDS011;68768;53.156;18.164;2023-11-19T12:27:22;30.20;;;12.80;;
76550;SDS011;68768;53.156;18.164;2023-11-19T12:29:49;40.70;;;16.60;;
76550;SDS011;68768;53.156;18.164;2023-11-19T12:32:17;45.70;;;16.80;;
76550;SDS011;68768;53.156;18.164;2023-11-19T12:34:44;38.20;;;16.60;;
76550;SDS011;68768;53.156;18.164;2023-11-19T12:37:12;43.70;;;15.90;;
76550;SDS011;68768;53.156;18.164;2023-11-19T12:39:39;39.20;;;16.80;;
76550;SDS011;68768;53.156;18.164;2023-11-19T12:42:06;40.00;;;16.30;;
76550;SDS011;68768;53.156;18.164;2023-11-19T12:44:33;42.30;;;17.20;;
76550;SDS011;68768;53.156;18.164;2023-11-19T12:47:04;35.50;;;14.60;;
76550;SDS011;68768;53.156;18.164;2023-11-19T12:49:37;38.30;;;15.80;;
76550;SDS011;68768;53.156;18.164;2023-11-19T12:52:11;37.40;;;14.30;;
76550;SDS011;68768;53.156;18.164;2023-11-19T12:54:39;36.40;;;14.70;;
76550;SDS011;68768;53.156;18.164;2023-11-19T12:57:06;39.10;;;15.20;;
76550;SDS011;68768;53.156;18.164;2023-11-19T12:59:33;38.50;;;14.70;;
76550;SDS011;68768;53.156;18.164;2023-11-19T13:02:00;41.20;;;15.50;;
76550;SDS011;68768;53.156;18.164;2023-11-19T13:04:29;33.40;;;12.70;;
76550;SDS011;68768;53.156;18.164;2023-11-19T13:06:59;46.80;;;18.50;;
76550;SDS011;68768;53.156;18.164;2023-11-19T13:09:27;43.20;;;16.20;;
76550;SDS011;68768;53.156;18.164;2023-11-19T13:11:54;41.60;;;17.30;;
76550;SDS011;68768;53.156;18.164;2023-11-19T13:14:22;34.10;;;14.40;;
76550;SDS011;68768;53.156;18.164;2023-11-19T13:16:50;38.30;;;16.70;;
76550;SDS011;68768;53.156;18.164;2023-11-19T13:19:17;39.20;;;15.80;;
76550;SDS011;68768;53.156;18.164;2023-11-19T13:21:45;42.30;;;16.10;;
76550;SDS011;68768;53.156;18.164;2023-11-19T13:24:15;36.30;;;15.90;;
76550;SDS011;68768;53.156;18.164;2023-11-19T13:26:42;38.00;;;15.10;;
76550;SDS011;68768;53.156;18.164;2023-11-19T13:29:09;43.20;;;16.40;;
76550;SDS011;68768;53.156;18.164;2023-11-19T13:31:37;48.00;;;20.00;;
76550;SDS011;68768;53.156;18.164;2023-11-19T13:34:04;40.80;;;16.20;;
76550;SDS011;68768;53.156;18.164;2023-11-19T13:36:33;34.00;;;15.00;;
76550;SDS011;68768;53.156;18.164;2023-11-19T13:39:01;36.20;;;14.40;;
76550;SDS011;68768;53.156;18.164;2023-11-19T13:41:28;35.10;;;14.60;;
76550;SDS011;68768;53.156;18.164;2023-11-19T13:43:55;33.50;;;13.20;;
76550;SDS011;68768;53.156;18.164;2023-11-19T13:46:22;40.20;;;16.20;;
76550;SDS011;68768;53.156;18.164;2023-11-19T13:48:49;44.80;;;15.90;;
76550;SDS011;68768;53.156;18.164;2023-11-19T13:51:16;38.10;;;15.40;;
76550;SDS011;68768;53.156;18.164;2023-11-19T13:53:43;33.10;;;13.30;;
76550;SDS011;68768;53.156;18.164;2023-11-19T13:56:10;31.90;;;12.70;;
76550;SDS011;68768;53.156;18.164;2023-11-19T13:58:37;33.30;;;12.60;;
76550;SDS011;68768;53.156;18.164;2023-11-19T14:01:05;26.00;;;10.40;;
76550;SDS011;68768;53.156;18.164;2023-11-19T14:03:32;32.00;;;14.00;;
76550;SDS011;68768;53.156;18.164;2023-11-19T14:06:00;36.00;;;15.60;;
76550;SDS011;68768;53.156;18.164;2023-11-19T14:08:27;38.30;;;14.30;;
76550;SDS011;68768;53.156;18.164;2023-11-19T14:10:54;39.10;;;15.00;;
76550;SDS011;68768;53.156;18.164;2023-11-19T14:13:23;31.30;;;13.70;;
76550;SDS011;68768;53.156;18.164;2023-11-19T14:15:50;36.60;;;14.70;;
76550;SDS011;68768;53.156;18.164;2023-11-19T14:18:18;34.90;;;13.90;;
76550;SDS011;68768;53.156;18.164;2023-11-19T14:20:45;32.40;;;12.50;;
76550;SDS011;68768;53.156;18.164;2023-11-19T14:23:12;41.80;;;16.30;;
76550;SDS011;68768;53.156;18.164;2023-11-19T14:25:39;43.80;;;16.30;;
76550;SDS011;68768;53.156;18.164;2023-11-19T14:28:06;36.80;;;15.30;;
76550;SDS011;68768;53.156;18.164;2023-11-19T14:30:34;42.40;;;16.50;;
76550;SDS011;68768;53.156;18.164;2023-11-19T14:33:01;32.10;;;13.60;;
76550;SDS011;68768;53.156;18.164;2023-11-19T14:35:28;37.80;;;15.70;;
76550;SDS011;68768;53.156;18.164;2023-11-19T14:37:56;34.80;;;13.50;;
76550;SDS011;68768;53.156;18.164;2023-11-19T14:40:23;31.00;;;13.50;;
76550;SDS011;68768;53.156;18.164;2023-11-19T14:42:50;27.50;;;12.60;;
76550;SDS011;68768;53.156;18.164;2023-11-19T14:45:17;33.70;;;14.50;;